sensor_id;sensor_type;location;lat;lon;timestamp;pressure;altitude;pressure_sealevel;temperature;humidity
55317;BME280;41178;48.956;8.130;2023-03-19T00:02:51;99285.72;;;14.27;42.68
55317;BME280;41178;48.956;8.130;2023-03-19T00:07:53;99292.69;;;12.93;43.05
55317;BME280;41178;48.956;8.130;2023-03-19T00:12:55;99291.97;;;14.20;41.59
55317;BME280;41178;48.956;8.130;2023-03-19T00:17:57;99257.66;;;15.45;39.57
55317;BME280;41178;48.956;8.130;2023-03-19T00:22:59;99296.75;;;15.55;38.87
55317;BME280;41178;48.956;8.130;2023-03-19T00:28:01;99302.13;;;15.06;40.13
55317;BME280;41178;48.956;8.130;2023-03-19T00:33:02;99345.72;;;13.18;42.57
55317;BME280;41178;48.956;8.130;2023-03-19T00:38:04;99367.03;;;13.72;41.74
55317;BME280;41178;48.956;8.130;2023-03-19T00:43:06;99325.19;;;13.76;42.08
55317;BME280;41178;48.956;8.130;2023-03-19T00:48:08;99304.66;;;14.38;41.63
55317;BME280;41178;48.956;8.130;2023-03-19T00:53:10;99380.66;;;14.09;41.44
55317;BME280;41178;48.956;8.130;2023-03-19T00:58:12;99362.25;;;13.28;42.21
55317;BME280;41178;48.956;8.130;2023-03-19T01:03:13;99368.06;;;14.02;41.31
55317;BME280;41178;48.956;8.130;2023-03-19T01:08:16;99361.13;;;14.70;41.44
55317;BME280;41178;48.956;8.130;2023-03-19T01:13:19;99406.28;;;13.73;42.52
55317;BME280;41178;48.956;8.130;2023-03-19T01:18:20;99407.28;;;13.40;42.70
55317;BME280;41178;48.956;8.130;2023-03-19T01:23:22;99409.81;;;13.28;43.28
55317;BME280;41178;48.956;8.130;2023-03-19T01:28:24;99351.41;;;14.44;41.96
55317;BME280;41178;48.956;8.130;2023-03-19T01:33:26;99426.56;;;12.97;43.84
55317;BME280;41178;48.956;8.130;2023-03-19T01:38:28;99415.63;;;14.09;42.35
55317;BME280;41178;48.956;8.130;2023-03-19T01:43:30;99383.34;;;16.61;39.42
55317;BME280;41178;48.956;8.130;2023-03-19T01:53:39;99341.50;;;16.16;39.70
55317;BME280;41178;48.956;8.130;2023-03-19T01:58:43;99357.03;;;16.68;39.48
55317;BME280;41178;48.956;8.130;2023-03-19T02:03:48;99378.91;;;15.82;39.87
55317;BME280;41178;48.956;8.130;2023-03-19T02:08:51;99420.88;;;11.85;46.37
55317;BME280;41178;48.956;8.130;2023-03-19T02:13:53;99382.53;;;14.01;43.69
55317;BME280;41178;48.956;8.130;2023-03-19T02:18:55;99438.28;;;12.15;45.55
55317;BME280;41178;48.956;8.130;2023-03-19T02:24:23;99451.59;;;12.64;44.90
55317;BME280;41178;48.956;8.130;2023-03-19T02:29:25;99361.47;;;15.36;40.96
55317;BME280;41178;48.956;8.130;2023-03-19T02:34:41;99403.03;;;14.02;42.84
55317;BME280;41178;48.956;8.130;2023-03-19T02:44:50;99371.50;;;15.29;41.04
55317;BME280;41178;48.956;8.130;2023-03-19T02:49:52;99395.41;;;15.07;41.23
55317;BME280;41178;48.956;8.130;2023-03-19T02:54:54;99456.03;;;14.34;42.63
55317;BME280;41178;48.956;8.130;2023-03-19T02:59:56;99452.19;;;14.55;42.72
55317;BME280;41178;48.956;8.130;2023-03-19T03:04:57;99437.69;;;15.80;41.02
55317;BME280;41178;48.956;8.130;2023-03-19T03:09:59;99471.94;;;13.58;42.94
55317;BME280;41178;48.956;8.130;2023-03-19T03:15:01;99443.41;;;14.66;42.02
55317;BME280;41178;48.956;8.130;2023-03-19T03:20:04;99430.72;;;14.99;41.44
55317;BME280;41178;48.956;8.130;2023-03-19T03:25:06;99476.41;;;14.23;42.62
55317;BME280;41178;48.956;8.130;2023-03-19T03:30:09;99461.44;;;14.91;41.11
55317;BME280;41178;48.956;8.130;2023-03-19T03:35:11;99472.91;;;14.23;42.49
55317;BME280;41178;48.956;8.130;2023-03-19T03:40:13;99463.09;;;14.35;42.07
55317;BME280;41178;48.956;8.130;2023-03-19T03:45:16;99504.19;;;13.65;42.82
55317;BME280;41178;48.956;8.130;2023-03-19T03:50:18;99473.94;;;15.47;40.29
55317;BME280;41178;48.956;8.130;2023-03-19T03:55:19;99499.06;;;16.34;39.16
55317;BME280;41178;48.956;8.130;2023-03-19T04:00:21;99505.94;;;16.60;39.14
55317;BME280;41178;48.956;8.130;2023-03-19T04:05:24;99480.72;;;16.05;39.12
55317;BME280;41178;48.956;8.130;2023-03-19T04:10:26;99461.47;;;16.02;38.92
55317;BME280;41178;48.956;8.130;2023-03-19T04:15:28;99467.53;;;16.58;38.25
55317;BME280;41178;48.956;8.130;2023-03-19T04:20:30;99481.84;;;17.01;38.22
55317;BME280;41178;48.956;8.130;2023-03-19T04:25:32;99515.53;;;14.89;40.68
55317;BME280;41178;48.956;8.130;2023-03-19T04:30:34;99509.28;;;14.64;41.40
55317;BME280;41178;48.956;8.130;2023-03-19T04:35:36;99496.94;;;15.06;40.83
55317;BME280;41178;48.956;8.130;2023-03-19T04:40:39;99483.19;;;15.58;39.57
55317;BME280;41178;48.956;8.130;2023-03-19T04:45:42;99490.63;;;16.84;38.08
55317;BME280;41178;48.956;8.130;2023-03-19T04:50:44;99486.66;;;15.96;38.84
55317;BME280;41178;48.956;8.130;2023-03-19T04:55:47;99489.53;;;15.27;39.85
55317;BME280;41178;48.956;8.130;2023-03-19T05:00:49;99486.50;;;15.35;39.70
55317;BME280;41178;48.956;8.130;2023-03-19T05:05:52;99460.56;;;16.27;38.65
55317;BME280;41178;48.956;8.130;2023-03-19T05:10:55;99454.19;;;15.72;39.33
55317;BME280;41178;48.956;8.130;2023-03-19T05:15:56;99467.69;;;16.02;38.64
55317;BME280;41178;48.956;8.130;2023-03-19T05:20:58;99483.97;;;15.40;39.78
55317;BME280;41178;48.956;8.130;2023-03-19T05:26:00;99481.97;;;16.21;39.05
55317;BME280;41178;48.956;8.130;2023-03-19T05:31:03;99477.81;;;14.89;39.98
55317;BME280;41178;48.956;8.130;2023-03-19T05:36:05;99476.22;;;15.69;40.05
55317;BME280;41178;48.956;8.130;2023-03-19T05:41:08;99494.56;;;16.70;38.75
55317;BME280;41178;48.956;8.130;2023-03-19T05:46:09;99504.75;;;15.14;40.65
55317;BME280;41178;48.956;8.130;2023-03-19T05:51:11;99477.94;;;15.82;39.85
55317;BME280;41178;48.956;8.130;2023-03-19T05:56:13;99477.84;;;15.51;39.89
55317;BME280;41178;48.956;8.130;2023-03-19T06:01:15;99476.78;;;15.34;39.63
55317;BME280;41178;48.956;8.130;2023-03-19T06:06:17;99514.53;;;15.34;40.17
55317;BME280;41178;48.956;8.130;2023-03-19T06:11:19;99499.69;;;16.17;38.99
55317;BME280;41178;48.956;8.130;2023-03-19T06:16:20;99524.41;;;14.97;40.37
55317;BME280;41178;48.956;8.130;2023-03-19T06:21:22;99532.22;;;14.41;40.84
55317;BME280;41178;48.956;8.130;2023-03-19T06:26:26;99493.66;;;15.04;40.00
55317;BME280;41178;48.956;8.130;2023-03-19T06:31:28;99515.00;;;14.74;40.96
55317;BME280;41178;48.956;8.130;2023-03-19T06:36:30;99519.63;;;16.35;39.29
55317;BME280;41178;48.956;8.130;2023-03-19T06:41:32;99533.47;;;15.27;40.65
55317;BME280;41178;48.956;8.130;2023-03-19T06:46:33;99507.50;;;15.08;40.46
55317;BME280;41178;48.956;8.130;2023-03-19T06:51:35;99508.97;;;15.73;40.61
55317;BME280;41178;48.956;8.130;2023-03-19T06:56:37;99513.03;;;16.31;39.50
55317;BME280;41178;48.956;8.130;2023-03-19T07:01:40;99526.56;;;15.57;39.88
55317;BME280;41178;48.956;8.130;2023-03-19T07:06:41;99523.19;;;17.60;37.58
55317;BME280;41178;48.956;8.130;2023-03-19T07:11:43;99538.22;;;15.07;40.16
55317;BME280;41178;48.956;8.130;2023-03-19T07:16:45;99539.53;;;15.66;39.76
55317;BME280;41178;48.956;8.130;2023-03-19T07:21:47;99517.59;;;13.72;42.23
55317;BME280;41178;48.956;8.130;2023-03-19T07:26:48;99557.31;;;13.56;42.80
55317;BME280;41178;48.956;8.130;2023-03-19T07:31:50;99503.31;;;16.41;39.75
55317;BME280;41178;48.956;8.130;2023-03-19T07:36:52;99551.00;;;14.86;41.05
55317;BME280;41178;48.956;8.130;2023-03-19T07:41:54;99542.09;;;15.36;40.40
55317;BME280;41178;48.956;8.130;2023-03-19T07:46:55;99518.25;;;16.25;40.19
55317;BME280;41178;48.956;8.130;2023-03-19T07:51:57;99489.41;;;16.26;39.35
55317;BME280;41178;48.956;8.130;2023-03-19T07:56:59;99511.44;;;17.07;38.90
55317;BME280;41178;48.956;8.130;2023-03-19T08:02:01;99553.63;;;15.43;40.72
55317;BME280;41178;48.956;8.130;2023-03-19T08:07:02;99504.75;;;15.95;40.70
55317;BME280;41178;48.956;8.130;2023-03-19T08:12:05;99509.38;;;16.67;39.51
55317;BME280;41178;48.956;8.130;2023-03-19T08:17:07;99499.44;;;16.37;39.52
55317;BME280;41178;48.956;8.130;2023-03-19T08:22:09;99526.63;;;15.25;40.87
55317;BME280;41178;48.956;8.130;2023-03-19T08:27:11;99520.91;;;15.14;41.74
55317;BME280;41178;48.956;8.130;2023-03-19T08:32:13;99540.00;;;15.13;42.03
55317;BME280;41178;48.956;8.130;2023-03-19T08:37:15;99513.84;;;16.85;39.72
55317;BME280;41178;48.956;8.130;2023-03-19T08:42:17;99525.22;;;15.66;41.03
55317;BME280;41178;48.956;8.130;2023-03-19T08:47:19;99545.03;;;15.53;41.36
55317;BME280;41178;48.956;8.130;2023-03-19T08:52:24;99576.69;;;15.14;41.04
55317;BME280;41178;48.956;8.130;2023-03-19T08:57:26;99530.19;;;16.18;40.28
55317;BME280;41178;48.956;8.130;2023-03-19T09:02:28;99505.41;;;16.39;41.00
55317;BME280;41178;48.956;8.130;2023-03-19T09:07:29;99505.44;;;14.14;41.64
55317;BME280;41178;48.956;8.130;2023-03-19T09:12:31;99533.84;;;15.56;41.00
55317;BME280;41178;48.956;8.130;2023-03-19T09:17:33;99490.91;;;16.22;40.42
55317;BME280;41178;48.956;8.130;2023-03-19T09:22:35;99497.72;;;16.55;40.01
55317;BME280;41178;48.956;8.130;2023-03-19T09:27:37;99587.06;;;14.78;41.61
55317;BME280;41178;48.956;8.130;2023-03-19T09:32:38;99528.84;;;17.23;39.73
55317;BME280;41178;48.956;8.130;2023-03-19T09:37:41;99497.47;;;16.98;38.92
55317;BME280;41178;48.956;8.130;2023-03-19T09:43:04;99512.75;;;17.64;38.12
55317;BME280;41178;48.956;8.130;2023-03-19T09:48:15;99529.34;;;16.66;39.50
55317;BME280;41178;48.956;8.130;2023-03-19T09:53:41;99542.44;;;18.28;38.20
55317;BME280;41178;48.956;8.130;2023-03-19T09:58:47;99524.63;;;16.31;39.41
55317;BME280;41178;48.956;8.130;2023-03-19T10:09:28;99508.16;;;17.64;38.59
55317;BME280;41178;48.956;8.130;2023-03-19T10:20:22;99494.69;;;17.81;38.92
55317;BME280;41178;48.956;8.130;2023-03-19T10:25:37;99500.28;;;17.04;39.76
55317;BME280;41178;48.956;8.130;2023-03-19T10:30:46;99482.84;;;17.70;38.02
55317;BME280;41178;48.956;8.130;2023-03-19T10:35:59;99515.53;;;16.86;38.80
55317;BME280;41178;48.956;8.130;2023-03-19T10:46:17;99526.41;;;16.68;39.32
55317;BME280;41178;48.956;8.130;2023-03-19T10:51:23;99540.09;;;16.54;39.47
55317;BME280;41178;48.956;8.130;2023-03-19T10:56:28;99502.78;;;17.93;38.45
55317;BME280;41178;48.956;8.130;2023-03-19T11:06:36;99562.72;;;15.24;41.64
55317;BME280;41178;48.956;8.130;2023-03-19T11:11:43;99546.69;;;15.54;41.17
55317;BME280;41178;48.956;8.130;2023-03-19T11:16:53;99580.63;;;15.37;42.11
55317;BME280;41178;48.956;8.130;2023-03-19T11:27:33;99551.81;;;16.48;40.45
55317;BME280;41178;48.956;8.130;2023-03-19T11:37:58;99580.97;;;14.65;42.19
55317;BME280;41178;48.956;8.130;2023-03-19T11:43:42;99588.88;;;13.94;43.85
55317;BME280;41178;48.956;8.130;2023-03-19T11:49:10;99606.00;;;14.20;44.45
55317;BME280;41178;48.956;8.130;2023-03-19T12:05:32;99573.78;;;15.16;43.28
55317;BME280;41178;48.956;8.130;2023-03-19T12:10:59;99577.44;;;14.96;42.61
55317;BME280;41178;48.956;8.130;2023-03-19T12:16:15;99533.00;;;16.11;41.77
55317;BME280;41178;48.956;8.130;2023-03-19T12:42:38;99538.22;;;16.97;44.33
55317;BME280;41178;48.956;8.130;2023-03-19T12:47:41;99550.41;;;13.94;46.40
55317;BME280;41178;48.956;8.130;2023-03-19T12:52:49;99544.28;;;17.23;42.66
55317;BME280;41178;48.956;8.130;2023-03-19T12:58:01;99530.78;;;15.71;44.00
55317;BME280;41178;48.956;8.130;2023-03-19T13:09:00;99535.97;;;16.82;43.15
55317;BME280;41178;48.956;8.130;2023-03-19T13:14:20;99542.16;;;16.71;43.18
55317;BME280;41178;48.956;8.130;2023-03-19T13:19:27;99542.03;;;16.66;44.32
55317;BME280;41178;48.956;8.130;2023-03-19T13:24:35;99517.28;;;16.38;44.10
55317;BME280;41178;48.956;8.130;2023-03-19T13:29:53;99545.38;;;15.82;45.83
55317;BME280;41178;48.956;8.130;2023-03-19T13:40:51;99525.38;;;14.70;46.01
55317;BME280;41178;48.956;8.130;2023-03-19T13:46:02;99523.44;;;16.99;43.22
55317;BME280;41178;48.956;8.130;2023-03-19T13:51:22;99568.00;;;15.62;45.68
55317;BME280;41178;48.956;8.130;2023-03-19T13:56:27;99531.34;;;15.92;44.97
55317;BME280;41178;48.956;8.130;2023-03-19T14:01:36;99530.88;;;14.89;45.89
55317;BME280;41178;48.956;8.130;2023-03-19T14:06:44;99495.97;;;16.00;44.91
55317;BME280;41178;48.956;8.130;2023-03-19T14:11:47;99535.13;;;15.03;47.33
55317;BME280;41178;48.956;8.130;2023-03-19T14:16:50;99509.53;;;16.12;46.16
55317;BME280;41178;48.956;8.130;2023-03-19T14:27:03;99550.81;;;17.62;42.94
55317;BME280;41178;48.956;8.130;2023-03-19T14:32:18;99528.06;;;15.71;45.54
55317;BME280;41178;48.956;8.130;2023-03-19T14:42:38;99453.38;;;18.60;40.97
55317;BME280;41178;48.956;8.130;2023-03-19T14:58:10;99470.09;;;16.95;42.92
55317;BME280;41178;48.956;8.130;2023-03-19T15:03:28;99434.50;;;18.20;41.83
55317;BME280;41178;48.956;8.130;2023-03-19T15:08:34;99517.34;;;15.64;44.89
55317;BME280;41178;48.956;8.130;2023-03-19T15:19:08;99478.28;;;16.88;43.73
55317;BME280;41178;48.956;8.130;2023-03-19T15:24:13;99497.09;;;16.41;44.62
55317;BME280;41178;48.956;8.130;2023-03-19T15:29:16;99491.38;;;16.61;44.49
55317;BME280;41178;48.956;8.130;2023-03-19T15:34:27;99475.91;;;16.92;43.92
55317;BME280;41178;48.956;8.130;2023-03-19T15:39:33;99512.38;;;16.47;43.64
55317;BME280;41178;48.956;8.130;2023-03-19T15:44:44;99495.16;;;16.72;43.55
55317;BME280;41178;48.956;8.130;2023-03-19T15:50:01;99459.38;;;17.00;43.54
55317;BME280;41178;48.956;8.130;2023-03-19T15:55:05;99490.50;;;16.79;44.22
55317;BME280;41178;48.956;8.130;2023-03-19T16:00:11;99516.47;;;16.50;44.81
55317;BME280;41178;48.956;8.130;2023-03-19T16:05:28;99537.19;;;16.56;45.33
55317;BME280;41178;48.956;8.130;2023-03-19T16:10:38;99512.88;;;17.33;44.33
55317;BME280;41178;48.956;8.130;2023-03-19T16:15:46;99502.13;;;16.91;43.44
55317;BME280;41178;48.956;8.130;2023-03-19T16:26:14;99549.41;;;16.58;44.05
55317;BME280;41178;48.956;8.130;2023-03-19T16:31:24;99595.94;;;15.18;46.98
55317;BME280;41178;48.956;8.130;2023-03-19T16:36:29;99581.41;;;16.06;47.83
55317;BME280;41178;48.956;8.130;2023-03-19T16:41:32;99556.59;;;17.30;45.66
55317;BME280;41178;48.956;8.130;2023-03-19T16:46:34;99553.44;;;17.45;45.80
55317;BME280;41178;48.956;8.130;2023-03-19T16:51:36;99531.28;;;16.47;46.51
55317;BME280;41178;48.956;8.130;2023-03-19T16:56:38;99561.06;;;16.71;46.12
55317;BME280;41178;48.956;8.130;2023-03-19T17:01:40;99561.19;;;16.76;45.35
55317;BME280;41178;48.956;8.130;2023-03-19T17:06:42;99604.03;;;15.68;46.26
55317;BME280;41178;48.956;8.130;2023-03-19T17:11:44;99637.03;;;15.13;47.94
55317;BME280;41178;48.956;8.130;2023-03-19T17:16:47;99625.66;;;15.36;48.02
55317;BME280;41178;48.956;8.130;2023-03-19T17:21:54;99588.84;;;14.21;49.23
55317;BME280;41178;48.956;8.130;2023-03-19T17:26:58;99610.88;;;16.75;45.42
55317;BME280;41178;48.956;8.130;2023-03-19T17:32:00;99588.97;;;16.16;45.14
55317;BME280;41178;48.956;8.130;2023-03-19T17:37:03;99617.75;;;17.55;43.77
55317;BME280;41178;48.956;8.130;2023-03-19T17:42:21;99600.31;;;17.27;43.74
55317;BME280;41178;48.956;8.130;2023-03-19T17:47:23;99633.03;;;18.20;42.47
55317;BME280;41178;48.956;8.130;2023-03-19T17:52:25;99607.06;;;16.15;44.20
55317;BME280;41178;48.956;8.130;2023-03-19T17:57:27;99619.34;;;16.48;44.55
55317;BME280;41178;48.956;8.130;2023-03-19T18:02:31;99698.13;;;14.81;47.49
55317;BME280;41178;48.956;8.130;2023-03-19T18:07:33;99689.97;;;14.49;48.03
55317;BME280;41178;48.956;8.130;2023-03-19T18:12:35;99652.19;;;17.24;44.16
55317;BME280;41178;48.956;8.130;2023-03-19T18:17:37;99639.16;;;16.91;43.15
55317;BME280;41178;48.956;8.130;2023-03-19T18:22:39;99653.91;;;16.21;43.92
55317;BME280;41178;48.956;8.130;2023-03-19T18:27:41;99674.69;;;16.02;44.03
55317;BME280;41178;48.956;8.130;2023-03-19T18:32:45;99688.56;;;11.88;52.12
55317;BME280;41178;48.956;8.130;2023-03-19T18:37:50;99699.16;;;16.62;45.10
55317;BME280;41178;48.956;8.130;2023-03-19T18:42:52;99741.22;;;14.81;48.01
55317;BME280;41178;48.956;8.130;2023-03-19T18:47:54;99763.34;;;14.17;48.22
55317;BME280;41178;48.956;8.130;2023-03-19T18:52:57;99752.34;;;15.04;47.10
55317;BME280;41178;48.956;8.130;2023-03-19T18:58:00;99704.53;;;16.25;44.44
55317;BME280;41178;48.956;8.130;2023-03-19T19:03:03;99771.16;;;12.49;52.26
55317;BME280;41178;48.956;8.130;2023-03-19T19:08:12;99815.22;;;13.64;50.17
55317;BME280;41178;48.956;8.130;2023-03-19T19:13:19;99735.31;;;15.10;47.17
55317;BME280;41178;48.956;8.130;2023-03-19T19:18:24;99731.91;;;15.85;45.49
55317;BME280;41178;48.956;8.130;2023-03-19T19:23:27;99745.81;;;14.73;46.77
55317;BME280;41178;48.956;8.130;2023-03-19T19:28:37;99788.91;;;14.87;46.31
55317;BME280;41178;48.956;8.130;2023-03-19T19:33:42;99786.88;;;14.55;46.46
55317;BME280;41178;48.956;8.130;2023-03-19T19:38:43;99820.81;;;13.76;48.28
55317;BME280;41178;48.956;8.130;2023-03-19T19:43:45;99824.94;;;16.77;43.76
55317;BME280;41178;48.956;8.130;2023-03-19T19:54:29;99838.13;;;13.47;48.26
55317;BME280;41178;48.956;8.130;2023-03-19T19:59:33;99849.34;;;12.74;49.64
55317;BME280;41178;48.956;8.130;2023-03-19T20:04:35;99854.59;;;13.99;48.07
55317;BME280;41178;48.956;8.130;2023-03-19T20:09:36;99868.91;;;14.59;47.63
55317;BME280;41178;48.956;8.130;2023-03-19T20:14:38;99847.09;;;15.85;45.29
55317;BME280;41178;48.956;8.130;2023-03-19T20:19:40;99906.16;;;14.09;48.22
55317;BME280;41178;48.956;8.130;2023-03-19T20:24:41;99851.63;;;15.07;45.57
55317;BME280;41178;48.956;8.130;2023-03-19T20:29:43;99875.09;;;14.73;46.93
55317;BME280;41178;48.956;8.130;2023-03-19T20:34:45;99881.25;;;15.07;46.39
55317;BME280;41178;48.956;8.130;2023-03-19T20:39:46;99883.56;;;15.04;46.33
55317;BME280;41178;48.956;8.130;2023-03-19T20:44:51;99890.84;;;15.48;45.42
55317;BME280;41178;48.956;8.130;2023-03-19T20:49:53;99941.81;;;14.45;47.44
55317;BME280;41178;48.956;8.130;2023-03-19T20:54:55;99928.31;;;14.11;47.48
55317;BME280;41178;48.956;8.130;2023-03-19T21:00:01;99939.13;;;14.65;47.14
55317;BME280;41178;48.956;8.130;2023-03-19T21:05:03;99952.78;;;14.50;47.58
55317;BME280;41178;48.956;8.130;2023-03-19T21:10:30;99965.84;;;14.39;47.68
55317;BME280;41178;48.956;8.130;2023-03-19T21:15:32;99976.28;;;12.89;50.01
55317;BME280;41178;48.956;8.130;2023-03-19T21:20:35;99990.16;;;13.21;49.17
55317;BME280;41178;48.956;8.130;2023-03-19T21:25:39;99969.72;;;12.99;49.13
55317;BME280;41178;48.956;8.130;2023-03-19T21:30:42;99994.50;;;13.99;48.29
55317;BME280;41178;48.956;8.130;2023-03-19T21:35:44;99974.38;;;13.40;48.95
55317;BME280;41178;48.956;8.130;2023-03-19T21:40:47;100004.47;;;13.63;48.94
55317;BME280;41178;48.956;8.130;2023-03-19T21:45:49;99982.72;;;14.07;47.02
55317;BME280;41178;48.956;8.130;2023-03-19T21:50:51;99963.97;;;12.73;48.54
55317;BME280;41178;48.956;8.130;2023-03-19T21:55:55;99999.56;;;13.10;48.96
55317;BME280;41178;48.956;8.130;2023-03-19T22:00:58;100015.34;;;13.20;49.25
55317;BME280;41178;48.956;8.130;2023-03-19T22:06:00;100011.97;;;14.30;47.52
55317;BME280;41178;48.956;8.130;2023-03-19T22:11:02;100021.34;;;13.85;48.54
55317;BME280;41178;48.956;8.130;2023-03-19T22:16:04;100045.66;;;13.71;48.93
55317;BME280;41178;48.956;8.130;2023-03-19T22:21:11;100044.22;;;13.75;48.52
55317;BME280;41178;48.956;8.130;2023-03-19T22:26:34;100047.00;;;12.75;49.75
55317;BME280;41178;48.956;8.130;2023-03-19T22:31:36;100045.44;;;13.65;47.81
55317;BME280;41178;48.956;8.130;2023-03-19T22:36:38;100045.97;;;13.26;48.25
55317;BME280;41178;48.956;8.130;2023-03-19T22:41:42;100052.44;;;12.60;49.51
55317;BME280;41178;48.956;8.130;2023-03-19T22:46:46;100040.13;;;13.79;47.65
55317;BME280;41178;48.956;8.130;2023-03-19T22:51:47;100059.16;;;13.21;47.99
55317;BME280;41178;48.956;8.130;2023-03-19T22:56:49;100030.72;;;13.61;47.65
55317;BME280;41178;48.956;8.130;2023-03-19T23:01:51;100063.66;;;13.14;48.29
55317;BME280;41178;48.956;8.130;2023-03-19T23:06:54;100048.25;;;12.72;48.64
55317;BME280;41178;48.956;8.130;2023-03-19T23:11:57;99939.28;;;10.64;53.25
55317;BME280;41178;48.956;8.130;2023-03-19T23:17:02;100053.72;;;11.76;51.67
55317;BME280;41178;48.956;8.130;2023-03-19T23:22:08;100040.19;;;13.51;48.00
55317;BME280;41178;48.956;8.130;2023-03-19T23:27:23;100064.19;;;12.23;50.85
55317;BME280;41178;48.956;8.130;2023-03-19T23:32:26;99994.84;;;10.39;53.67
55317;BME280;41178;48.956;8.130;2023-03-19T23:37:28;100066.00;;;11.18;52.96
55317;BME280;41178;48.956;8.130;2023-03-19T23:42:30;100071.94;;;13.69;48.34
55317;BME280;41178;48.956;8.130;2023-03-19T23:47:32;100084.72;;;12.30;50.32
55317;BME280;41178;48.956;8.130;2023-03-19T23:52:34;100083.78;;;12.74;50.30
55317;BME280;41178;48.956;8.130;2023-03-19T23:57:37;100092.72;;;12.09;51.60
